createdAt,value
2017-09-29T00:00:31.065Z,101642
2017-09-29T00:03:00.969Z,101640
2017-09-29T00:05:30.900Z,101633
2017-09-29T00:08:00.818Z,101635
2017-09-29T00:10:31.037Z,101637
2017-09-29T00:13:00.906Z,101631
2017-09-29T00:15:31.178Z,101632
2017-09-29T00:18:01.063Z,101632
2017-09-29T00:20:30.977Z,101633
2017-09-29T00:23:00.859Z,101633
2017-09-29T00:25:31.003Z,101620
2017-09-29T00:28:01.087Z,101632
2017-09-29T00:30:31.221Z,101630
2017-09-29T00:33:01.095Z,101634
2017-09-29T00:35:30.998Z,101629
2017-09-29T00:38:00.880Z,101626
2017-09-29T00:40:31.226Z,101621
2017-09-29T00:43:01.085Z,101625
2017-09-29T00:45:31.250Z,101637
2017-09-29T00:48:01.118Z,101625
2017-09-29T00:50:30.993Z,101630
2017-09-29T00:53:00.861Z,101625
2017-09-29T00:55:31.011Z,101617
2017-09-29T00:58:00.878Z,101625
2017-09-29T01:00:31.076Z,101623
2017-09-29T01:03:00.946Z,101626
2017-09-29T01:05:31.089Z,101622
2017-09-29T01:08:00.971Z,101622
2017-09-29T01:10:31.117Z,101623
2017-09-29T01:13:00.997Z,101468
2017-09-29T01:15:30.897Z,101624
2017-09-29T01:18:00.766Z,101622
2017-09-29T01:20:31.083Z,101627
2017-09-29T01:23:00.949Z,101617
2017-09-29T01:25:30.954Z,101616
2017-09-29T01:28:00.831Z,101616
2017-09-29T01:30:31.035Z,101620
2017-09-29T01:33:00.903Z,101616
2017-09-29T01:35:31.058Z,101618
2017-09-29T01:38:00.974Z,101618
2017-09-29T01:40:30.858Z,101622
2017-09-29T01:43:00.721Z,101617
2017-09-29T01:45:30.620Z,101615
2017-09-29T01:48:00.464Z,101616
2017-09-29T01:50:30.322Z,101615
2017-09-29T01:53:00.177Z,101616
2017-09-29T01:55:30.029Z,101614
2017-09-29T01:58:00.185Z,101614
2017-09-29T02:00:30.079Z,101609
2017-09-29T02:02:59.947Z,101607
2017-09-29T02:05:29.794Z,101603
2017-09-29T02:07:59.970Z,101600
2017-09-29T02:10:29.842Z,101598
2017-09-29T02:12:59.739Z,101595
2017-09-29T02:15:29.608Z,101593
2017-09-29T02:17:59.742Z,101587
2017-09-29T02:20:29.605Z,101586
2017-09-29T02:22:59.830Z,101595
2017-09-29T02:25:29.689Z,101592
2017-09-29T02:27:59.838Z,101584
2017-09-29T02:30:29.712Z,101588
2017-09-29T02:32:59.599Z,101583
2017-09-29T02:35:29.450Z,101585
2017-09-29T02:37:59.362Z,101579
2017-09-29T02:40:29.222Z,101585
2017-09-29T02:42:59.198Z,101583
2017-09-29T02:45:29.104Z,101577
2017-09-29T02:47:58.948Z,101579
2017-09-29T02:50:29.287Z,101573
2017-09-29T02:52:59.180Z,101577
2017-09-29T02:55:29.055Z,101581
2017-09-29T02:58:02.092Z,101571
2017-09-29T03:00:32.614Z,101566
2017-09-29T03:03:02.859Z,101569
2017-09-29T03:05:34.098Z,101571
2017-09-29T03:08:03.954Z,101576
2017-09-29T03:10:34.133Z,101570
2017-09-29T03:13:03.996Z,101575
2017-09-29T03:15:34.154Z,101571
2017-09-29T03:18:04.030Z,101574
2017-09-29T03:20:33.953Z,101580
2017-09-29T03:23:03.826Z,101570
2017-09-29T03:25:34.003Z,101570
2017-09-29T03:28:03.895Z,101571
2017-09-29T03:30:33.783Z,101567
2017-09-29T03:33:03.675Z,101569
2017-09-29T03:35:33.894Z,101570
2017-09-29T03:38:03.784Z,101572
2017-09-29T03:40:33.666Z,101569
2017-09-29T03:43:03.527Z,101561
2017-09-29T03:45:33.424Z,101562
2017-09-29T03:48:03.333Z,101558
2017-09-29T03:50:41.067Z,101560
2017-09-29T03:53:12.503Z,101552
2017-09-29T03:55:42.910Z,101549
2017-09-29T03:58:14.386Z,101544
2017-09-29T04:00:44.284Z,101551
2017-09-29T04:03:14.972Z,101540
2017-09-29T04:05:44.858Z,101548
2017-09-29T04:08:15.310Z,101538
2017-09-29T04:10:45.178Z,101539
2017-09-29T04:13:15.386Z,101536
2017-09-29T04:15:45.458Z,101535
2017-09-29T04:18:15.498Z,101531
2017-09-29T04:20:45.372Z,101533
2017-09-29T04:23:15.246Z,101541
2017-09-29T04:25:45.127Z,101545
2017-09-29T04:28:15.591Z,101543
2017-09-29T04:30:45.576Z,101550
2017-09-29T04:33:15.450Z,101549
2017-09-29T04:35:45.377Z,101546
2017-09-29T04:38:15.243Z,101548
2017-09-29T04:40:45.195Z,101553
2017-09-29T04:43:15.127Z,101550
2017-09-29T04:45:45.052Z,101551
2017-09-29T04:48:15.307Z,101552
2017-09-29T04:50:45.180Z,101545
2017-09-29T04:53:15.444Z,101552
2017-09-29T04:55:45.318Z,101543
2017-09-29T04:58:15.649Z,101552
2017-09-29T05:00:45.508Z,101548
2017-09-29T05:03:15.409Z,101547
2017-09-29T05:05:45.307Z,101547
2017-09-29T05:08:15.218Z,101550
2017-09-29T05:10:45.087Z,101551
2017-09-29T05:13:14.964Z,101551
2017-09-29T05:15:44.844Z,101554
2017-09-29T05:18:14.747Z,101544
2017-09-29T05:20:45.017Z,101548
2017-09-29T05:23:14.884Z,101553
2017-09-29T05:25:44.804Z,101551
2017-09-29T05:28:14.713Z,101554
2017-09-29T05:30:44.602Z,101554
2017-09-29T05:33:14.485Z,101561
2017-09-29T05:35:44.368Z,101553
2017-09-29T05:38:14.294Z,101556
2017-09-29T05:40:44.170Z,101553
2017-09-29T05:43:14.119Z,101561
2017-09-29T05:45:43.995Z,101561
2017-09-29T05:48:14.147Z,101565
2017-09-29T05:50:44.048Z,101562
2017-09-29T05:53:14.269Z,101565
2017-09-29T05:55:44.145Z,101572
2017-09-29T05:58:14.285Z,101558
2017-09-29T06:00:44.154Z,101556
2017-09-29T06:03:14.459Z,101552
2017-09-29T06:05:44.352Z,101558
2017-09-29T06:08:14.479Z,101560
2017-09-29T06:10:44.429Z,101550
2017-09-29T06:13:14.358Z,101553
2017-09-29T06:15:44.233Z,101559
2017-09-29T06:18:14.103Z,101559
2017-09-29T06:20:44.018Z,101560
2017-09-29T06:23:13.896Z,101556
2017-09-29T06:25:43.935Z,101566
2017-09-29T06:28:13.960Z,101564
2017-09-29T06:30:44.223Z,101567
2017-09-29T06:33:14.083Z,101556
2017-09-29T06:35:43.977Z,101567
2017-09-29T06:38:13.863Z,101566
2017-09-29T06:40:44.085Z,101560
2017-09-29T06:43:13.967Z,101564
2017-09-29T06:45:43.871Z,101550
2017-09-29T06:48:15.169Z,101561
2017-09-29T06:50:45.393Z,101561
2017-09-29T06:53:15.288Z,101565
2017-09-29T06:55:45.514Z,101558
2017-09-29T06:58:15.373Z,101559
2017-09-29T07:00:45.275Z,101559
2017-09-29T07:03:15.142Z,101563
2017-09-29T07:05:45.036Z,101560
2017-09-29T07:08:14.954Z,101569
2017-09-29T07:10:44.819Z,101571
2017-09-29T07:13:14.698Z,101570
2017-09-29T07:15:44.656Z,101559
2017-09-29T07:18:14.585Z,101566
2017-09-29T07:20:44.484Z,101567
2017-09-29T07:23:14.526Z,101566
2017-09-29T07:25:45.829Z,101561
2017-09-29T07:28:17.018Z,101567
2017-09-29T07:30:47.351Z,101572
2017-09-29T07:33:17.447Z,101560
2017-09-29T07:35:47.329Z,101559
2017-09-29T07:38:17.220Z,101562
2017-09-29T07:40:47.575Z,101565
2017-09-29T07:43:17.458Z,101577
2017-09-29T07:45:47.414Z,101569
2017-09-29T07:48:17.328Z,101568
2017-09-29T07:50:47.213Z,101566
2017-09-29T07:53:17.523Z,101567
2017-09-29T07:55:47.477Z,101560
2017-09-29T07:58:17.394Z,101571
2017-09-29T08:00:47.272Z,101568
2017-09-29T08:03:17.153Z,101566
2017-09-29T08:05:47.371Z,101564
2017-09-29T08:08:17.273Z,101569
2017-09-29T08:10:47.542Z,101567
2017-09-29T08:13:17.414Z,101562
2017-09-29T08:15:47.322Z,101566
2017-09-29T08:18:17.193Z,101559
2017-09-29T08:20:47.083Z,101556
2017-09-29T08:23:17.331Z,101560
2017-09-29T08:25:47.198Z,101558
2017-09-29T08:28:17.540Z,101551
2017-09-29T08:30:47.409Z,101550
2017-09-29T08:33:17.686Z,101541
2017-09-29T08:35:47.598Z,101549
2017-09-29T08:38:17.836Z,101544
2017-09-29T08:40:47.778Z,101542
2017-09-29T08:43:18.063Z,101545
2017-09-29T08:45:47.992Z,101553
2017-09-29T08:48:18.237Z,101546
2017-09-29T08:50:48.106Z,101547
2017-09-29T08:53:18.347Z,101543
2017-09-29T08:55:48.264Z,101540
2017-09-29T08:58:18.558Z,101531
2017-09-29T09:00:48.439Z,101533
2017-09-29T09:03:18.438Z,101527
2017-09-29T09:05:48.349Z,101524
2017-09-29T09:08:18.260Z,101523
2017-09-29T09:10:48.543Z,101520
2017-09-29T09:13:18.401Z,101515
2017-09-29T09:15:48.405Z,101516
2017-09-29T09:18:18.272Z,101515
2017-09-29T09:20:48.136Z,101509
2017-09-29T09:23:18.406Z,101504
2017-09-29T09:25:48.303Z,101504
2017-09-29T09:28:18.186Z,101495
2017-09-29T09:30:48.070Z,101489
2017-09-29T09:33:18.331Z,101493
2017-09-29T09:35:48.246Z,101487
2017-09-29T09:38:18.520Z,101495
2017-09-29T09:40:48.426Z,101491
2017-09-29T09:43:18.323Z,101504
2017-09-29T09:45:48.215Z,101490
2017-09-29T09:48:18.091Z,101492
2017-09-29T09:50:48.344Z,101490
2017-09-29T09:53:18.234Z,101494
2017-09-29T09:55:48.514Z,101491
2017-09-29T09:58:18.394Z,101494
2017-09-29T10:00:48.274Z,101488
2017-09-29T10:03:18.317Z,101484
2017-09-29T10:05:48.203Z,101485
2017-09-29T10:08:18.505Z,101481
2017-09-29T10:10:48.416Z,101486
2017-09-29T10:13:18.314Z,101485
2017-09-29T10:15:48.237Z,101475
2017-09-29T10:18:18.141Z,101473
2017-09-29T10:20:48.417Z,101468
2017-09-29T10:23:18.486Z,101470
2017-09-29T10:25:48.722Z,101466
2017-09-29T10:28:18.599Z,101474
2017-09-29T10:30:48.878Z,101473
2017-09-29T10:33:19.575Z,101476
2017-09-29T10:35:49.837Z,101469
2017-09-29T10:38:20.508Z,101465
2017-09-29T10:40:50.851Z,101460
2017-09-29T10:43:20.747Z,101458
2017-09-29T10:45:51.114Z,101457
2017-09-29T10:48:20.987Z,101454
2017-09-29T10:50:51.252Z,101444
2017-09-29T10:53:21.242Z,101445
2017-09-29T10:55:51.708Z,101442
2017-09-29T10:58:21.566Z,101442
2017-09-29T11:00:51.904Z,101444
2017-09-29T11:03:21.803Z,101429
2017-09-29T11:05:52.086Z,101431
2017-09-29T11:08:22.035Z,101434
2017-09-29T11:10:52.285Z,101423
2017-09-29T11:13:22.191Z,101426
2017-09-29T11:15:52.456Z,101424
2017-09-29T11:18:22.416Z,101415
2017-09-29T11:20:52.424Z,101408
2017-09-29T11:23:22.294Z,101404
2017-09-29T11:25:52.213Z,101405
2017-09-29T11:28:22.485Z,101401
2017-09-29T11:30:52.407Z,101401
2017-09-29T11:33:22.369Z,101401
2017-09-29T11:35:52.347Z,101400
2017-09-29T11:38:22.274Z,101395
2017-09-29T11:40:52.565Z,101390
2017-09-29T11:43:22.434Z,101386
2017-09-29T11:45:52.347Z,101394
2017-09-29T11:48:22.227Z,101385
2017-09-29T11:50:52.150Z,101386
2017-09-29T11:53:22.455Z,101383
2017-09-29T11:55:52.315Z,101386
2017-09-29T11:58:22.765Z,101380
2017-09-29T12:00:52.669Z,101377
2017-09-29T12:03:22.920Z,101371
2017-09-29T12:05:52.830Z,101373
2017-09-29T12:08:23.266Z,101369
2017-09-29T12:10:53.151Z,101366
2017-09-29T12:13:23.391Z,101365
2017-09-29T12:15:53.259Z,101365
2017-09-29T12:18:23.525Z,101364
2017-09-29T12:20:53.403Z,101363
2017-09-29T12:23:23.382Z,101366
2017-09-29T12:25:53.363Z,101359
2017-09-29T12:28:23.243Z,101358
2017-09-29T12:30:53.118Z,101359
2017-09-29T12:33:23.146Z,101350
2017-09-29T12:35:53.437Z,101355
2017-09-29T12:38:23.317Z,101341
2017-09-29T12:40:53.666Z,101348
2017-09-29T12:43:23.644Z,101340
2017-09-29T12:45:53.914Z,101341
2017-09-29T12:48:23.846Z,101347
2017-09-29T12:50:54.145Z,101342
2017-09-29T12:53:24.027Z,101343
2017-09-29T12:55:54.442Z,101342
2017-09-29T12:58:24.407Z,101332
2017-09-29T13:00:54.771Z,101328
2017-09-29T13:03:24.663Z,101326
2017-09-29T13:05:54.932Z,101322
2017-09-29T13:08:24.808Z,101324
2017-09-29T13:10:55.103Z,101321
2017-09-29T13:13:25.027Z,101315
2017-09-29T13:15:55.389Z,101318
2017-09-29T13:18:25.290Z,101320
2017-09-29T13:20:55.680Z,101322
2017-09-29T13:23:25.570Z,101321
2017-09-29T13:25:56.094Z,101316
2017-09-29T13:28:26.065Z,101310
2017-09-29T13:30:56.465Z,101314
2017-09-29T13:33:26.344Z,101322
2017-09-29T13:35:56.722Z,101320
2017-09-29T13:38:26.620Z,101322
2017-09-29T13:40:56.920Z,101322
2017-09-29T13:43:26.799Z,101318
2017-09-29T13:45:57.090Z,101320
2017-09-29T13:48:26.974Z,101323
2017-09-29T13:50:57.318Z,101320
2017-09-29T13:53:27.206Z,101320
2017-09-29T13:55:57.662Z,101322
2017-09-29T13:58:27.616Z,101314
2017-09-29T14:00:57.874Z,101313
2017-09-29T14:03:27.831Z,101312
2017-09-29T14:05:58.140Z,101315
2017-09-29T14:08:28.018Z,101315
2017-09-29T14:10:58.342Z,101311
2017-09-29T14:13:28.218Z,101312
2017-09-29T14:15:58.480Z,101299
2017-09-29T14:18:28.390Z,101305
2017-09-29T14:20:58.745Z,101303
2017-09-29T14:23:28.621Z,101301
2017-09-29T14:25:58.494Z,101302
2017-09-29T14:28:28.762Z,101304
2017-09-29T14:30:58.637Z,101304
2017-09-29T14:33:28.905Z,101305
2017-09-29T14:35:58.787Z,101305
2017-09-29T14:38:29.238Z,101300
2017-09-29T14:40:59.114Z,101296
2017-09-29T14:43:29.483Z,101302
2017-09-29T14:45:59.340Z,101302
2017-09-29T14:48:29.645Z,101300
2017-09-29T14:50:59.523Z,101304
2017-09-29T14:53:29.415Z,101294
2017-09-29T14:55:59.317Z,101296
2017-09-29T14:58:29.275Z,101295
2017-09-29T15:00:59.130Z,101289
2017-09-29T15:03:29.074Z,101296
2017-09-29T15:05:59.415Z,101299
2017-09-29T15:08:29.298Z,101293
2017-09-29T15:10:59.738Z,101295
2017-09-29T15:13:29.634Z,101295
2017-09-29T15:16:00.008Z,101294
2017-09-29T15:18:29.845Z,101293
2017-09-29T15:21:00.061Z,101288
2017-09-29T15:23:29.929Z,101264
2017-09-29T15:26:00.163Z,101282
2017-09-29T15:28:30.139Z,101276
2017-09-29T15:31:00.401Z,101284
2017-09-29T15:33:30.289Z,101286
2017-09-29T15:36:00.752Z,101282
2017-09-29T15:38:30.627Z,101292
2017-09-29T15:41:00.977Z,101290
2017-09-29T15:43:30.852Z,101290
2017-09-29T15:46:01.105Z,101288
2017-09-29T15:48:30.964Z,101295
2017-09-29T15:51:01.230Z,101299
2017-09-29T15:53:31.166Z,101294
2017-09-29T15:56:01.485Z,101294
2017-09-29T15:58:31.350Z,101298
2017-09-29T16:01:01.729Z,101284
2017-09-29T16:03:31.689Z,101287
2017-09-29T16:06:01.942Z,101290
2017-09-29T16:08:31.814Z,101290
2017-09-29T16:11:02.249Z,101295
2017-09-29T16:13:32.127Z,101284
2017-09-29T16:16:02.442Z,101289
2017-09-29T16:18:32.364Z,101291
2017-09-29T16:21:02.665Z,101295
2017-09-29T16:23:32.546Z,101294
2017-09-29T16:26:02.472Z,101287
2017-09-29T16:28:32.334Z,101296
2017-09-29T16:31:02.306Z,101299
2017-09-29T16:33:32.655Z,101288
2017-09-29T16:36:02.559Z,101292
2017-09-29T16:38:32.878Z,101285
2017-09-29T16:41:02.821Z,101290
2017-09-29T16:43:33.137Z,101281
2017-09-29T16:46:03.056Z,101292
2017-09-29T16:48:33.306Z,101284
2017-09-29T16:51:03.253Z,101288
2017-09-29T16:53:33.675Z,101292
2017-09-29T16:56:03.541Z,101294
2017-09-29T16:58:33.431Z,101283
2017-09-29T17:01:03.295Z,101291
2017-09-29T17:03:33.193Z,101291
2017-09-29T17:06:03.427Z,101300
2017-09-29T17:08:33.307Z,101294
2017-09-29T17:11:03.610Z,101295
2017-09-29T17:13:33.500Z,101293
2017-09-29T17:16:03.373Z,101291
2017-09-29T17:18:33.307Z,101291
2017-09-29T17:21:03.183Z,101284
2017-09-29T17:23:33.480Z,101288
2017-09-29T17:26:03.386Z,101292
2017-09-29T17:28:33.727Z,101281
2017-09-29T17:31:03.656Z,101283
2017-09-29T17:33:33.935Z,101285
2017-09-29T17:36:03.814Z,101283
2017-09-29T17:38:34.122Z,101282
2017-09-29T17:41:04.045Z,101283
2017-09-29T17:43:34.357Z,101278
2017-09-29T17:46:04.226Z,101278
2017-09-29T17:48:34.566Z,101278
2017-09-29T17:51:04.582Z,101276
2017-09-29T17:53:34.906Z,101270
2017-09-29T17:56:04.962Z,101267
2017-09-29T17:58:35.228Z,101267
2017-09-29T18:01:05.140Z,101256
2017-09-29T18:03:35.462Z,101257
2017-09-29T18:06:05.383Z,101257
2017-09-29T18:08:35.731Z,101261
2017-09-29T18:11:06.485Z,101256
2017-09-29T18:13:36.788Z,101253
2017-09-29T18:16:06.675Z,101244
2017-09-29T18:18:36.879Z,101244
2017-09-29T18:21:06.788Z,101250
2017-09-29T18:23:37.139Z,101242
2017-09-29T18:26:07.016Z,101249
2017-09-29T18:28:37.386Z,101243
2017-09-29T18:31:07.278Z,101238
2017-09-29T18:33:37.530Z,101244
2017-09-29T18:36:07.410Z,101237
2017-09-29T18:38:37.291Z,101235
2017-09-29T18:41:07.609Z,101239
2017-09-29T18:43:37.509Z,101232
2017-09-29T18:46:22.253Z,101231
2017-09-29T18:48:52.135Z,101229
2017-09-29T18:51:22.012Z,101226
2017-09-29T18:53:51.994Z,101223
2017-09-29T18:56:22.301Z,101229
2017-09-29T18:58:52.201Z,101222
2017-09-29T19:01:22.646Z,101234
2017-09-29T19:03:52.545Z,101227
2017-09-29T19:06:22.458Z,101224
2017-09-29T19:08:52.349Z,101218
2017-09-29T19:11:22.258Z,101204
2017-09-29T19:13:52.610Z,101220
2017-09-29T19:16:22.499Z,101215
2017-09-29T19:18:52.398Z,101216
2017-09-29T19:21:22.306Z,101209
2017-09-29T19:23:52.260Z,101207
2017-09-29T19:26:22.570Z,101209
2017-09-29T19:28:52.440Z,101209
2017-09-29T19:31:22.354Z,101205
2017-09-29T19:33:52.251Z,101197
2017-09-29T19:36:22.143Z,101200
2017-09-29T19:38:52.491Z,101195
2017-09-29T19:41:22.365Z,101202
2017-09-29T19:43:52.624Z,101206
2017-09-29T19:46:22.535Z,101207
2017-09-29T19:48:53.015Z,101209
2017-09-29T19:51:22.915Z,101207
2017-09-29T19:53:52.835Z,101206
2017-09-29T19:56:23.012Z,101205
2017-09-29T19:58:52.892Z,101210
2017-09-29T20:01:23.245Z,101209
2017-09-29T20:03:53.122Z,101206
2017-09-29T20:06:23.486Z,101202
2017-09-29T20:08:53.381Z,101203
2017-09-29T20:11:23.830Z,101201
2017-09-29T20:13:53.729Z,101208
2017-09-29T20:16:24.075Z,101211
2017-09-29T20:18:53.966Z,101205
2017-09-29T20:21:24.188Z,101212
2017-09-29T20:23:54.183Z,101211
2017-09-29T20:26:24.438Z,101208
2017-09-29T20:28:54.320Z,101212
2017-09-29T20:31:24.658Z,101203
2017-09-29T20:33:54.563Z,101206
2017-09-29T20:36:24.457Z,101212
2017-09-29T20:38:54.315Z,101217
2017-09-29T20:41:24.192Z,101204
2017-09-29T20:43:54.536Z,101208
2017-09-29T20:46:24.408Z,101201
2017-09-29T20:48:54.651Z,101202
2017-09-29T20:51:24.564Z,101201
2017-09-29T20:53:54.940Z,101200
2017-09-29T20:56:24.843Z,101192
2017-09-29T20:58:55.268Z,101200
2017-09-29T21:01:25.165Z,101203
2017-09-29T21:03:55.413Z,101205
2017-09-29T21:06:25.279Z,101199
2017-09-29T21:08:55.522Z,101200
2017-09-29T21:11:25.430Z,101208
2017-09-29T21:13:55.451Z,101202
2017-09-29T21:16:25.329Z,101202
2017-09-29T21:18:55.276Z,101203
2017-09-29T21:21:25.603Z,101194
2017-09-29T21:23:55.487Z,101195
2017-09-29T21:26:25.388Z,101189
2017-09-29T21:28:55.287Z,101194
2017-09-29T21:31:25.223Z,101186
2017-09-29T21:33:55.532Z,101193
2017-09-29T21:36:25.465Z,101181
2017-09-29T21:38:55.366Z,101183
2017-09-29T21:41:25.654Z,101179
2017-09-29T21:43:55.572Z,101183
2017-09-29T21:46:25.873Z,101185
2017-09-29T21:48:55.766Z,101186
2017-09-29T21:51:26.006Z,101178
2017-09-29T21:53:55.885Z,101180
2017-09-29T21:56:26.245Z,101178
2017-09-29T21:58:56.123Z,101179
2017-09-29T22:01:26.366Z,101167
2017-09-29T22:03:56.258Z,101173
2017-09-29T22:06:26.699Z,101172
2017-09-29T22:08:56.654Z,101171
2017-09-29T22:11:26.896Z,101164
2017-09-29T22:13:56.982Z,101164
2017-09-29T22:16:27.248Z,101162
2017-09-29T22:18:57.164Z,101154
2017-09-29T22:21:27.393Z,101152
2017-09-29T22:23:57.310Z,101153
2017-09-29T22:26:27.617Z,101149
2017-09-29T22:28:57.487Z,101150
2017-09-29T22:31:27.358Z,101146
2017-09-29T22:33:57.238Z,101160
2017-09-29T22:36:27.151Z,101143
2017-09-29T22:38:57.520Z,101148
2017-09-29T22:41:27.385Z,101148
2017-09-29T22:43:57.638Z,101146
2017-09-29T22:46:27.520Z,101145
2017-09-29T22:48:58.000Z,101146
2017-09-29T22:51:27.863Z,101136
2017-09-29T22:53:58.161Z,101137
2017-09-29T22:56:28.026Z,101132
2017-09-29T22:58:58.371Z,101139
2017-09-29T23:01:28.221Z,101141
2017-09-29T23:03:58.509Z,101130
2017-09-29T23:06:28.426Z,101129
2017-09-29T23:08:58.842Z,101124
2017-09-29T23:11:28.714Z,101124
2017-09-29T23:13:58.989Z,101122
2017-09-29T23:16:28.894Z,101119
2017-09-29T23:18:59.139Z,101121
2017-09-29T23:21:29.115Z,101119
2017-09-29T23:23:59.363Z,101113
2017-09-29T23:26:29.225Z,101112
2017-09-29T23:28:59.494Z,101111
2017-09-29T23:31:29.410Z,101102
2017-09-29T23:33:59.318Z,101113
2017-09-29T23:36:29.194Z,101106
2017-09-29T23:38:59.109Z,101107
2017-09-29T23:41:29.572Z,101111
2017-09-29T23:43:59.457Z,101110
2017-09-29T23:46:29.806Z,101101
2017-09-29T23:48:59.722Z,101107
2017-09-29T23:51:30.089Z,101107
2017-09-29T23:54:00.100Z,101088
2017-09-29T23:56:30.390Z,101085
2017-09-29T23:59:00.241Z,101094
